Time;durP1;ratioP1;P1;durP2;ratioP2;P2;SDS_P1;SDS_P2;PMS_P1;PMS_P2;Temp;Humidity;BMP_temperature;BMP_pressure;BME280_temperature;BME280_humidity;BME280_pressure;Samples;Min_cycle;Max_cycle;Signal;HPM_P1;HPM_P2
2022/09/09 00:01:12;;;;;;;100.53;27.15;;;14.00;99.90;;;;;;4964406;28;20046;-79
2022/09/09 00:04:05;;;;;;;92.15;26.75;;;14.00;99.90;;;;;;4971300;28;20027;-79
2022/09/09 00:06:35;;;;;;;88.57;24.90;;;14.00;99.90;;;;;;4962389;28;20035;-79
2022/09/09 00:09:10;;;;;;;92.38;25.73;;;14.00;99.90;;;;;;4973480;28;20114;-79
2022/09/09 00:11:52;;;;;;;96.30;26.80;;;14.00;99.90;;;;;;4963537;28;20035;-79
2022/09/09 00:14:39;;;;;;;84.60;25.60;;;14.00;99.90;;;;;;4954018;29;20034;-80
2022/09/09 00:17:11;;;;;;;94.60;26.90;;;13.90;99.90;;;;;;4961435;28;20463;-79
2022/09/09 00:20:14;;;;;;;81.22;25.10;;;13.80;99.90;;;;;;4963341;28;20031;-79
2022/09/09 00:23:09;;;;;;;85.72;25.98;;;13.80;99.90;;;;;;4969223;28;20031;-79
2022/09/09 00:25:42;;;;;;;83.10;25.00;;;13.70;99.90;;;;;;4967811;28;20101;-79
2022/09/09 00:28:19;;;;;;;83.28;23.27;;;13.60;99.90;;;;;;4974906;28;20026;-79
2022/09/09 00:30:48;;;;;;;88.97;24.48;;;13.60;99.90;;;;;;4971105;28;20035;-79
2022/09/09 00:33:16;;;;;;;86.75;24.63;;;13.50;99.90;;;;;;4973145;28;20026;-79
2022/09/09 00:35:46;;;;;;;96.30;24.98;;;13.50;99.90;;;;;;4972371;28;20054;-78
2022/09/09 00:38:23;;;;;;;99.53;26.42;;;13.50;99.90;;;;;;4970921;28;20031;-79
2022/09/09 00:41:01;;;;;;;94.10;25.70;;;13.50;99.90;;;;;;4970894;28;20494;-79
2022/09/09 00:43:36;;;;;;;78.05;25.00;;;13.40;99.90;;;;;;4972164;28;20038;-79
2022/09/09 00:46:17;;;;;;;94.88;25.95;;;13.40;99.90;;;;;;4967800;28;20117;-79
2022/09/09 00:49:03;;;;;;;91.22;25.85;;;13.40;99.90;;;;;;4967963;28;20031;-79
2022/09/09 00:51:34;;;;;;;99.57;26.63;;;13.40;99.90;;;;;;4960409;28;20046;-79
2022/09/09 00:54:25;;;;;;;86.85;26.10;;;13.40;99.90;;;;;;4964522;28;20066;-78
2022/09/09 00:56:57;;;;;;;107.97;28.23;;;13.40;99.90;;;;;;4966676;28;20038;-79
2022/09/09 01:00:12;;;;;;;90.53;25.42;;;13.30;99.90;;;;;;4960073;28;20478;-79
2022/09/09 01:03:06;;;;;;;93.90;26.27;;;13.30;99.90;;;;;;4935900;29;20118;-79
2022/09/09 01:05:59;;;;;;;101.45;27.60;;;13.30;99.90;;;;;;4966667;28;20023;-79
2022/09/09 01:08:53;;;;;;;96.45;26.77;;;13.40;99.90;;;;;;4943019;28;20463;-79
2022/09/09 01:11:25;;;;;;;102.03;27.83;;;13.30;99.90;;;;;;4965728;28;20039;-79
2022/09/09 01:14:21;;;;;;;108.45;29.52;;;13.40;99.90;;;;;;4970103;28;20106;-79
2022/09/09 01:16:47;;;;;;;93.18;27.33;;;13.30;99.90;;;;;;4972156;28;20122;-79
2022/09/09 01:19:24;;;;;;;118.68;30.98;;;13.30;99.90;;;;;;4973115;28;20081;-79
2022/09/09 01:22:14;;;;;;;112.35;29.20;;;13.30;99.90;;;;;;4974558;28;20031;-79
2022/09/09 01:25:08;;;;;;;117.30;30.65;;;13.40;99.90;;;;;;4975034;28;20078;-79
2022/09/09 01:27:36;;;;;;;108.82;29.15;;;13.40;99.90;;;;;;4967810;28;20038;-79
2022/09/09 01:30:08;;;;;;;115.50;30.77;;;13.40;99.90;;;;;;4971308;28;20459;-79
2022/09/09 01:32:48;;;;;;;106.50;28.75;;;13.30;99.90;;;;;;4964800;28;20379;-79
2022/09/09 01:35:39;;;;;;;109.53;30.55;;;13.30;99.90;;;;;;4967909;28;20452;-79
2022/09/09 01:38:05;;;;;;;117.43;31.00;;;13.30;99.90;;;;;;4961927;28;20039;-79
2022/09/09 01:40:31;;;;;;;113.35;30.35;;;13.30;99.90;;;;;;4964279;28;20062;-78
2022/09/09 01:42:57;;;;;;;109.47;30.75;;;13.40;99.90;;;;;;4959130;28;20534;-79
2022/09/09 01:45:24;;;;;;;116.45;31.63;;;13.40;99.90;;;;;;4970953;28;20038;-79
2022/09/09 01:47:52;;;;;;;116.38;31.35;;;13.50;99.90;;;;;;4963439;28;20045;-78
2022/09/09 01:50:18;;;;;;;111.47;31.55;;;13.50;99.90;;;;;;4958082;28;20455;-78
2022/09/09 01:52:47;;;;;;;116.32;31.42;;;13.50;99.90;;;;;;4973310;28;20023;-78
2022/09/09 01:55:12;;;;;;;112.50;30.75;;;13.50;99.90;;;;;;4973715;28;20138;-79
2022/09/09 01:57:53;;;;;;;110.25;30.08;;;13.50;99.90;;;;;;4969590;28;20113;-78
2022/09/09 02:00:18;;;;;;;119.77;31.47;;;13.60;99.90;;;;;;4966981;28;20026;-78
2022/09/09 02:03:05;;;;;;;108.30;31.83;;;13.60;99.90;;;;;;4965617;28;20081;-79
2022/09/09 02:05:39;;;;;;;104.97;30.08;;;13.60;99.90;;;;;;4967679;28;20034;-78
2022/09/09 02:08:09;;;;;;;112.00;30.08;;;13.60;99.90;;;;;;4963095;28;20023;-79
2022/09/09 02:10:44;;;;;;;89.00;28.65;;;13.60;99.90;;;;;;4963826;28;20110;-79
2022/09/09 02:13:13;;;;;;;101.22;28.80;;;13.60;99.90;;;;;;4972078;28;20037;-79
2022/09/09 02:15:46;;;;;;;95.35;29.90;;;13.60;99.90;;;;;;4974051;28;20130;-78
2022/09/09 02:18:14;;;;;;;95.80;27.70;;;13.50;99.90;;;;;;4972879;28;20042;-79
2022/09/09 02:20:42;;;;;;;86.28;27.48;;;13.50;99.90;;;;;;4962283;28;20023;-79
2022/09/09 02:23:10;;;;;;;103.00;28.70;;;13.40;99.90;;;;;;4958147;28;20144;-79
2022/09/09 02:25:37;;;;;;;91.03;27.45;;;13.40;99.90;;;;;;4958333;28;20031;-79
2022/09/09 02:28:06;;;;;;;97.07;28.52;;;13.40;99.90;;;;;;4972523;28;20035;-79
2022/09/09 02:30:34;;;;;;;91.03;26.70;;;13.30;99.90;;;;;;4973926;28;20039;-79
2022/09/09 02:33:02;;;;;;;86.40;27.33;;;13.30;99.90;;;;;;4976106;28;20078;-79
2022/09/09 02:35:30;;;;;;;90.32;27.35;;;13.20;99.90;;;;;;4973015;28;20467;-79
2022/09/09 02:38:01;;;;;;;101.05;27.95;;;13.20;99.90;;;;;;4960403;28;20027;-79
2022/09/09 02:40:26;;;;;;;84.68;26.73;;;13.10;99.90;;;;;;4964145;28;20031;-79
2022/09/09 02:42:54;;;;;;;83.82;26.17;;;13.10;99.90;;;;;;4968955;28;20089;-79
2022/09/09 02:45:25;;;;;;;94.95;25.80;;;13.10;99.90;;;;;;4959071;28;20042;-79
2022/09/09 02:47:59;;;;;;;90.38;26.85;;;13.00;99.90;;;;;;4984145;28;20467;-79
2022/09/09 02:50:35;;;;;;;81.47;24.23;;;13.00;99.90;;;;;;4968750;28;20037;-79
2022/09/09 02:53:17;;;;;;;80.03;23.58;;;13.00;99.90;;;;;;4969567;28;20027;-79
2022/09/09 02:55:59;;;;;;;77.72;23.02;;;13.00;99.90;;;;;;4965482;28;20034;-78
2022/09/09 02:58:25;;;;;;;74.18;22.67;;;13.00;99.90;;;;;;4969787;28;20035;-79
2022/09/09 03:00:52;;;;;;;69.40;23.88;;;13.00;99.90;;;;;;4971965;28;20423;-79
2022/09/09 03:03:19;;;;;;;74.95;22.45;;;13.00;99.90;;;;;;4974689;28;20425;-79
2022/09/09 03:05:45;;;;;;;73.47;23.05;;;12.90;99.90;;;;;;4972230;28;20031;-79
2022/09/09 03:08:12;;;;;;;80.07;22.88;;;13.00;99.90;;;;;;4958570;28;20383;-79
2022/09/09 03:10:38;;;;;;;63.65;22.38;;;12.90;99.90;;;;;;4964321;28;20386;-79
2022/09/09 03:13:05;;;;;;;70.38;22.58;;;12.90;99.90;;;;;;4967042;28;20034;-79
2022/09/09 03:15:32;;;;;;;73.80;22.63;;;12.90;99.90;;;;;;4966474;28;20030;-78
2022/09/09 03:17:59;;;;;;;67.30;22.23;;;12.90;99.90;;;;;;4967140;28;20039;-79
2022/09/09 03:20:26;;;;;;;72.45;21.70;;;12.80;99.90;;;;;;4962837;28;20027;-78
2022/09/09 03:22:55;;;;;;;68.47;20.85;;;12.80;99.90;;;;;;4966284;28;20094;-78
2022/09/09 03:25:23;;;;;;;70.00;21.17;;;12.80;99.90;;;;;;4967822;28;20038;-79
2022/09/09 03:27:49;;;;;;;62.92;20.30;;;12.80;99.90;;;;;;4963231;28;20038;-79
2022/09/09 03:30:15;;;;;;;62.50;20.17;;;12.80;99.90;;;;;;4960147;28;20053;-79
2022/09/09 03:32:41;;;;;;;69.45;19.48;;;12.80;99.90;;;;;;4964756;28;20059;-79
2022/09/09 03:35:07;;;;;;;53.83;17.85;;;12.70;99.90;;;;;;4966554;28;20482;-79
2022/09/09 03:37:33;;;;;;;55.03;18.67;;;12.70;99.90;;;;;;4966229;28;20027;-79
2022/09/09 03:39:59;;;;;;;56.55;19.00;;;12.70;99.90;;;;;;4974259;28;20042;-79
2022/09/09 03:42:25;;;;;;;57.15;19.30;;;12.80;99.90;;;;;;4966524;28;20034;-79
2022/09/09 03:44:51;;;;;;;52.55;18.13;;;12.80;99.90;;;;;;4961967;28;20030;-78
2022/09/09 03:47:18;;;;;;;46.78;17.40;;;12.80;99.90;;;;;;4969860;28;20376;-79
2022/09/09 03:49:43;;;;;;;53.05;17.40;;;12.80;99.90;;;;;;4969725;28;20361;-79
2022/09/09 03:52:09;;;;;;;60.65;18.17;;;12.80;99.90;;;;;;4973807;28;20121;-79
2022/09/09 03:54:35;;;;;;;51.03;16.52;;;12.70;99.90;;;;;;4973274;28;20451;-78
2022/09/09 03:57:01;;;;;;;48.53;17.05;;;12.70;99.90;;;;;;4970187;28;20066;-79
2022/09/09 03:59:27;;;;;;;48.47;17.55;;;12.70;99.90;;;;;;4972706;28;20030;-79
2022/09/09 04:01:52;;;;;;;51.00;17.25;;;12.60;99.90;;;;;;4969099;28;20031;-79
2022/09/09 04:04:19;;;;;;;50.55;16.10;;;12.70;99.90;;;;;;4973754;28;20027;-79
2022/09/09 04:06:45;;;;;;;38.33;15.63;;;12.60;99.90;;;;;;4969700;28;20345;-79
2022/09/09 04:09:11;;;;;;;40.70;14.85;;;12.60;99.90;;;;;;4957795;28;20054;-79
2022/09/09 04:11:37;;;;;;;36.00;14.02;;;12.60;99.90;;;;;;4969307;28;20039;-79
2022/09/09 04:14:02;;;;;;;38.40;14.52;;;12.60;99.90;;;;;;4973575;28;20026;-79
2022/09/09 04:16:28;;;;;;;51.05;15.30;;;12.60;99.90;;;;;;4972259;28;20459;-78
2022/09/09 04:18:53;;;;;;;41.90;14.48;;;12.60;99.90;;;;;;4962868;28;20062;-78
2022/09/09 04:21:19;;;;;;;43.85;14.02;;;12.60;99.90;;;;;;4973436;28;20286;-78
2022/09/09 04:23:44;;;;;;;45.72;15.27;;;12.60;99.90;;;;;;4973580;28;20066;-79
2022/09/09 04:26:10;;;;;;;38.10;13.98;;;12.60;99.90;;;;;;4974345;28;20038;-79
2022/09/09 04:28:36;;;;;;;41.90;13.50;;;12.60;99.90;;;;;;4960319;28;20517;-81
2022/09/09 04:31:17;;;;;;;36.95;14.00;;;12.60;99.90;;;;;;4968908;28;20062;-72
2022/09/09 04:33:42;;;;;;;38.00;13.60;;;12.60;99.90;;;;;;4974526;28;20026;-72
2022/09/09 04:36:08;;;;;;;30.40;12.85;;;12.60;99.90;;;;;;4974013;28;20035;-72
2022/09/09 04:38:33;;;;;;;37.20;13.85;;;12.50;99.90;;;;;;4956811;28;20073;-73
2022/09/09 04:40:59;;;;;;;36.80;13.07;;;12.50;99.90;;;;;;4940299;29;20047;-72
2022/09/09 04:43:25;;;;;;;36.10;13.05;;;12.50;99.90;;;;;;4959772;28;20074;-73
2022/09/09 04:45:51;;;;;;;31.30;12.52;;;12.50;99.90;;;;;;4968031;28;20034;-73
2022/09/09 04:48:18;;;;;;;30.80;10.95;;;12.50;99.90;;;;;;4966398;28;20038;-72
2022/09/09 04:50:43;;;;;;;29.38;11.32;;;12.50;99.90;;;;;;4964205;28;20027;-72
2022/09/09 04:53:09;;;;;;;31.08;11.68;;;12.60;99.90;;;;;;4968038;28;20455;-72
2022/09/09 04:55:35;;;;;;;28.52;12.13;;;12.60;99.90;;;;;;4965142;28;20023;-73
2022/09/09 04:58:08;;;;;;;31.45;11.25;;;12.60;99.90;;;;;;4956110;28;20035;-74
2022/09/09 05:00:37;;;;;;;33.08;12.40;;;12.60;99.90;;;;;;4961144;28;20374;-73
2022/09/09 05:03:06;;;;;;;27.00;11.48;;;12.70;99.90;;;;;;4967031;28;20086;-72
2022/09/09 05:05:35;;;;;;;30.48;12.02;;;12.70;99.90;;;;;;4969619;28;20034;-73
2022/09/09 05:08:03;;;;;;;29.88;12.05;;;12.80;99.90;;;;;;4968583;28;20034;-73
2022/09/09 05:10:28;;;;;;;31.13;11.77;;;12.80;99.90;;;;;;4973853;28;20467;-73
2022/09/09 05:12:54;;;;;;;31.10;11.63;;;12.90;99.90;;;;;;4969606;28;20038;-72
2022/09/09 05:15:20;;;;;;;25.33;12.10;;;12.90;99.90;;;;;;4972932;28;20023;-74
2022/09/09 05:17:46;;;;;;;30.38;11.90;;;13.00;99.90;;;;;;4967316;28;20035;-73
2022/09/09 05:20:11;;;;;;;31.77;11.23;;;13.00;99.90;;;;;;4971297;28;20411;-73
2022/09/09 05:22:37;;;;;;;29.70;11.48;;;13.00;99.90;;;;;;4971525;28;20039;-72
2022/09/09 05:25:03;;;;;;;29.80;10.88;;;13.10;99.90;;;;;;4973210;28;20419;-72
2022/09/09 05:27:31;;;;;;;20.63;9.73;;;13.10;99.90;;;;;;4964285;28;20046;-72
2022/09/09 05:29:57;;;;;;;28.10;10.93;;;13.10;99.90;;;;;;4972787;28;20493;-78
2022/09/09 05:32:22;;;;;;;23.80;10.68;;;13.20;99.90;;;;;;4964233;28;20019;-72
2022/09/09 05:34:48;;;;;;;27.20;10.88;;;13.20;99.90;;;;;;4956869;28;20033;-73
2022/09/09 05:37:13;;;;;;;24.02;10.38;;;13.20;99.90;;;;;;4967872;28;20034;-72
2022/09/09 05:39:39;;;;;;;19.70;9.85;;;13.30;99.90;;;;;;4982460;28;20101;-72
2022/09/09 05:42:05;;;;;;;26.63;10.10;;;13.30;99.90;;;;;;4963503;28;20049;-73
2022/09/09 05:44:31;;;;;;;23.90;9.82;;;13.30;99.90;;;;;;4966321;28;20119;-73
2022/09/09 05:46:57;;;;;;;26.70;9.80;;;13.30;99.90;;;;;;4965125;28;20042;-73
2022/09/09 05:49:23;;;;;;;26.98;9.77;;;13.40;99.90;;;;;;4966597;28;20018;-73
2022/09/09 05:51:50;;;;;;;19.23;9.00;;;13.40;99.90;;;;;;4967359;28;20118;-73
2022/09/09 05:54:15;;;;;;;22.48;8.75;;;13.40;99.90;;;;;;4964032;28;20027;-73
2022/09/09 05:56:41;;;;;;;21.95;8.95;;;13.50;99.90;;;;;;4957863;28;20035;-75
2022/09/09 05:59:07;;;;;;;23.88;9.05;;;13.50;99.90;;;;;;4970624;28;20042;-74
2022/09/09 06:01:35;;;;;;;24.67;9.02;;;13.50;99.90;;;;;;4969399;28;20376;-73
2022/09/09 06:04:02;;;;;;;19.70;8.68;;;13.50;99.90;;;;;;4972330;28;20069;-74
2022/09/09 06:06:34;;;;;;;19.98;8.80;;;13.60;99.90;;;;;;4971214;28;20419;-74
2022/09/09 06:09:00;;;;;;;18.75;9.35;;;13.60;99.90;;;;;;4958109;28;20047;-73
2022/09/09 06:11:30;;;;;;;16.08;8.48;;;13.70;99.90;;;;;;4953506;28;20041;-73
2022/09/09 06:13:57;;;;;;;19.63;8.13;;;13.80;99.90;;;;;;4969136;28;20030;-74
2022/09/09 06:16:26;;;;;;;19.42;8.20;;;13.80;99.90;;;;;;4968143;28;20952;-73
2022/09/09 06:18:53;;;;;;;15.38;7.97;;;13.90;99.90;;;;;;4972978;28;20110;-74
2022/09/09 06:21:21;;;;;;;17.50;7.75;;;14.00;99.90;;;;;;4972218;28;20055;-74
2022/09/09 06:23:48;;;;;;;20.10;8.27;;;14.00;99.80;;;;;;4972974;28;20038;-74
2022/09/09 06:26:19;;;;;;;14.75;7.43;;;14.10;99.80;;;;;;4972669;28;20034;-74
2022/09/09 06:28:47;;;;;;;12.43;7.05;;;14.10;99.60;;;;;;4968024;28;20110;-74
2022/09/09 06:31:14;;;;;;;13.50;6.80;;;14.20;99.60;;;;;;4959009;28;20127;-73
2022/09/09 06:33:41;;;;;;;15.90;6.68;;;14.20;99.40;;;;;;4970394;28;20031;-74
2022/09/09 06:36:12;;;;;;;15.48;6.60;;;14.20;99.40;;;;;;4972810;28;20042;-73
2022/09/09 06:38:38;;;;;;;14.20;6.32;;;14.20;99.30;;;;;;4972338;28;20038;-74
2022/09/09 06:41:05;;;;;;;12.77;6.38;;;14.20;99.20;;;;;;4971046;28;20035;-74
2022/09/09 06:43:31;;;;;;;15.13;5.95;;;14.20;99.20;;;;;;4953094;28;20019;-73
2022/09/09 06:45:58;;;;;;;13.48;6.22;;;14.20;99.30;;;;;;4966457;28;20068;-73
2022/09/09 06:48:30;;;;;;;15.88;6.03;;;14.30;99.30;;;;;;4972616;28;20034;-74
2022/09/09 06:51:07;;;;;;;13.45;5.68;;;14.30;99.00;;;;;;4967450;28;20034;-74
2022/09/09 06:53:35;;;;;;;10.23;5.40;;;14.40;99.00;;;;;;4976290;28;20478;-74
2022/09/09 06:56:25;;;;;;;12.93;4.65;;;14.30;98.90;;;;;;4973661;28;20023;-74
2022/09/09 06:58:52;;;;;;;10.80;5.53;;;14.30;98.60;;;;;;4962127;28;20089;-74
2022/09/09 07:01:24;;;;;;;12.73;5.13;;;14.40;98.70;;;;;;4964569;28;20417;-74
2022/09/09 07:03:51;;;;;;;11.77;5.10;;;14.50;98.80;;;;;;4956744;28;20506;-74
2022/09/09 07:06:25;;;;;;;11.48;4.50;;;14.50;98.80;;;;;;4956560;28;20031;-73
2022/09/09 07:08:55;;;;;;;8.23;4.57;;;14.50;98.60;;;;;;4974130;28;20045;-74
2022/09/09 07:11:23;;;;;;;8.90;4.07;;;14.50;98.40;;;;;;4974894;28;20027;-73
2022/09/09 07:13:49;;;;;;;8.43;4.15;;;14.60;98.10;;;;;;4965070;28;20352;-74
2022/09/09 07:16:20;;;;;;;7.10;3.88;;;14.70;98.30;;;;;;4956645;28;20035;-74
2022/09/09 07:18:47;;;;;;;12.60;4.85;;;14.80;97.90;;;;;;4975770;28;20018;-74
2022/09/09 07:21:14;;;;;;;8.07;3.92;;;14.80;97.90;;;;;;4975224;28;20031;-74
2022/09/09 07:23:40;;;;;;;8.20;3.75;;;14.90;97.80;;;;;;4976008;28;20160;-75
2022/09/09 07:26:19;;;;;;;9.98;3.83;;;15.00;98.00;;;;;;4974807;28;20094;-74
2022/09/09 07:28:44;;;;;;;11.32;4.18;;;15.20;97.60;;;;;;4973225;28;20027;-75
2022/09/09 07:31:16;;;;;;;9.00;3.45;;;15.30;97.20;;;;;;4972126;28;20099;-74
2022/09/09 07:33:42;;;;;;;8.98;3.55;;;15.50;97.10;;;;;;4963627;28;20106;-74
2022/09/09 07:36:12;;;;;;;10.60;4.00;;;15.60;97.10;;;;;;4974309;28;20049;-74
2022/09/09 07:38:46;;;;;;;5.95;2.97;;;15.70;96.90;;;;;;4972380;28;20031;-74
2022/09/09 07:41:16;;;;;;;5.40;3.40;;;15.70;96.00;;;;;;4968083;28;20099;-74
2022/09/09 07:43:42;;;;;;;7.97;3.28;;;15.90;96.00;;;;;;4960918;28;20031;-74
2022/09/09 07:46:10;;;;;;;5.00;2.83;;;16.00;95.60;;;;;;4971752;28;20023;-74
2022/09/09 07:48:35;;;;;;;5.00;2.97;;;16.10;95.80;;;;;;4969506;28;20031;-74
2022/09/09 07:51:11;;;;;;;7.95;3.67;;;16.10;95.00;;;;;;4965884;28;20435;-74
2022/09/09 07:53:38;;;;;;;4.25;2.60;;;16.30;95.20;;;;;;4955771;28;20105;-74
2022/09/09 07:56:09;;;;;;;4.18;2.42;;;16.50;95.40;;;;;;4966581;28;20046;-74
2022/09/09 07:58:36;;;;;;;4.72;2.60;;;16.60;95.40;;;;;;4970558;28;20105;-74
2022/09/09 08:01:08;;;;;;;5.53;2.75;;;16.70;94.90;;;;;;4971313;28;20041;-74
2022/09/09 08:03:33;;;;;;;5.13;2.38;;;16.60;94.50;;;;;;4961695;28;20042;-74
2022/09/09 08:06:04;;;;;;;7.15;2.30;;;16.60;94.20;;;;;;4974853;28;20042;-74
2022/09/09 08:08:30;;;;;;;5.63;2.38;;;16.50;94.20;;;;;;4963978;28;20038;-74
2022/09/09 08:11:03;;;;;;;5.68;2.13;;;16.50;94.20;;;;;;4956730;28;20388;-74
2022/09/09 08:13:28;;;;;;;5.60;2.15;;;16.40;94.20;;;;;;4963535;28;20035;-74
2022/09/09 08:15:54;;;;;;;5.22;2.05;;;16.50;94.80;;;;;;4962975;28;20081;-74
2022/09/09 08:18:19;;;;;;;5.97;2.60;;;16.30;94.40;;;;;;4974233;28;20030;-74
2022/09/09 08:20:45;;;;;;;4.30;2.10;;;16.60;95.00;;;;;;4973419;28;20467;-74
2022/09/09 08:23:10;;;;;;;3.88;2.30;;;16.60;94.70;;;;;;4967840;28;20101;-74
2022/09/09 08:25:36;;;;;;;5.10;2.20;;;17.00;94.70;;;;;;4955039;29;20114;-75
2022/09/09 08:28:01;;;;;;;5.68;2.10;;;17.40;94.70;;;;;;4961283;28;20035;-75
2022/09/09 08:30:27;;;;;;;5.95;2.20;;;17.50;93.60;;;;;;4964199;28;20525;-76
2022/09/09 08:32:52;;;;;;;4.90;1.92;;;17.50;92.40;;;;;;4965541;28;20502;-74
2022/09/09 08:35:20;;;;;;;6.35;2.08;;;17.70;92.30;;;;;;4955721;28;20469;-75
2022/09/09 08:37:45;;;;;;;3.15;1.55;;;17.70;91.20;;;;;;4974204;28;20018;-75
2022/09/09 08:40:22;;;;;;;4.65;1.63;;;17.70;90.50;;;;;;4974261;28;20034;-74
2022/09/09 08:42:52;;;;;;;4.03;1.45;;;17.90;90.50;;;;;;4969751;28;20092;-75
2022/09/09 08:45:24;;;;;;;2.95;1.40;;;17.80;89.10;;;;;;4968431;28;20038;-75
2022/09/09 08:48:07;;;;;;;3.53;1.25;;;17.90;89.80;;;;;;4953493;28;20116;-75
2022/09/09 08:50:38;;;;;;;3.47;1.52;;;17.80;88.60;;;;;;4966840;28;20042;-74
2022/09/09 08:53:24;;;;;;;3.67;1.60;;;17.80;89.40;;;;;;4961529;28;20351;-75
2022/09/09 08:55:58;;;;;;;7.05;1.42;;;18.20;89.90;;;;;;4958121;28;20098;-75
2022/09/09 08:58:31;;;;;;;4.72;1.40;;;18.50;89.20;;;;;;4972348;28;20034;-74
2022/09/09 09:01:22;;;;;;;6.00;1.95;;;18.70;89.40;;;;;;4970239;28;20031;-74
2022/09/09 09:04:20;;;;;;;5.75;1.58;;;18.80;87.20;;;;;;4955178;28;20027;-75
2022/09/09 09:07:00;;;;;;;3.58;1.77;;;18.80;86.00;;;;;;4926993;28;20114;-75
2022/09/09 09:09:52;;;;;;;3.90;1.15;;;19.20;87.20;;;;;;4972566;28;20105;-74
2022/09/09 09:12:21;;;;;;;3.20;0.93;;;19.30;84.60;;;;;;4970371;28;20466;-74
2022/09/09 09:14:48;;;;;;;5.30;1.30;;;19.50;82.90;;;;;;4971952;28;20022;-75
2022/09/09 09:17:19;;;;;;;3.00;1.15;;;19.50;82.40;;;;;;4971289;28;20018;-75
2022/09/09 09:19:46;;;;;;;;;;;19.60;83.40;;;;;;4972662;28;20061;-75
2022/09/09 09:22:28;;;;;;;5.72;1.08;;;19.70;83.80;;;;;;4973758;28;19961;-74
2022/09/09 09:25:01;;;;;;;4.05;1.10;;;19.90;81.80;;;;;;4972615;28;20031;-74
2022/09/09 09:27:43;;;;;;;6.70;1.33;;;19.70;81.50;;;;;;4957391;28;20031;-74
2022/09/09 09:30:19;;;;;;;2.55;1.00;;;19.70;82.80;;;;;;4964350;28;20094;-75
2022/09/09 09:33:04;;;;;;;3.03;1.02;;;20.10;83.50;;;;;;4961627;28;20027;-75
2022/09/09 09:35:30;;;;;;;3.45;1.42;;;20.40;80.50;;;;;;4965061;28;20143;-75
2022/09/09 09:37:55;;;;;;;5.97;1.42;;;20.50;79.60;;;;;;4962037;28;20101;-74
2022/09/09 09:40:22;;;;;;;5.43;1.40;;;20.30;79.90;;;;;;4972149;28;20039;-74
2022/09/09 09:42:52;;;;;;;4.25;0.93;;;19.80;79.20;;;;;;4964262;28;20058;-75
2022/09/09 09:45:29;;;;;;;3.60;1.58;;;20.00;81.70;;;;;;4957638;28;20455;-74
2022/09/09 09:48:03;;;;;;;3.83;1.20;;;20.10;78.70;;;;;;4966690;28;20341;-74
2022/09/09 09:50:29;;;;;;;6.78;1.40;;;19.60;81.00;;;;;;4969889;28;20038;-74
2022/09/09 09:52:57;;;;;;;3.65;1.20;;;19.70;81.00;;;;;;4973265;28;20098;-75
2022/09/09 09:55:24;;;;;;;3.67;1.02;;;19.80;81.10;;;;;;4960542;28;20024;-74
2022/09/09 09:57:50;;;;;;;3.30;1.00;;;19.60;80.60;;;;;;4971739;28;20453;-74
2022/09/09 10:00:17;;;;;;;4.72;1.33;;;19.70;81.10;;;;;;4970398;28;20089;-74
2022/09/09 10:02:46;;;;;;;3.58;1.20;;;19.80;82.00;;;;;;4971223;28;20061;-74
2022/09/09 10:05:24;;;;;;;3.50;1.30;;;19.90;81.00;;;;;;4973249;28;20035;-74
2022/09/09 10:08:11;;;;;;;3.97;1.15;;;19.70;79.30;;;;;;4966387;28;20023;-74
2022/09/09 10:10:48;;;;;;;5.35;1.60;;;20.10;80.00;;;;;;4961778;28;20057;-75
2022/09/09 10:13:28;;;;;;;6.10;1.35;;;20.50;80.10;;;;;;4965252;28;20448;-74
2022/09/09 10:16:13;;;;;;;4.72;1.48;;;20.50;78.50;;;;;;4960652;28;20081;-74
2022/09/09 10:18:47;;;;;;;5.10;1.17;;;20.90;77.00;;;;;;4972822;28;20034;-75
2022/09/09 10:21:31;;;;;;;3.22;1.30;;;20.90;76.50;;;;;;4973447;28;20033;-74
2022/09/09 10:24:25;;;;;;;5.00;1.15;;;21.20;75.90;;;;;;4972815;28;20402;-74
2022/09/09 10:27:14;;;;;;;4.10;1.00;;;21.10;76.90;;;;;;4974583;28;20045;-73
2022/09/09 10:29:51;;;;;;;2.70;0.85;;;21.30;76.20;;;;;;4969745;28;20061;-75
2022/09/09 10:32:33;;;;;;;4.40;1.10;;;21.50;74.30;;;;;;4971492;28;20508;-75
2022/09/09 10:35:22;;;;;;;1.95;0.75;;;21.60;74.10;;;;;;4975572;28;20038;-75
2022/09/09 10:38:02;;;;;;;4.82;0.93;;;21.60;73.40;;;;;;4976669;28;20023;-74
2022/09/09 10:40:41;;;;;;;5.85;1.25;;;21.60;71.50;;;;;;4976151;28;20109;-76
2022/09/09 10:43:39;;;;;;;3.83;1.00;;;21.40;72.70;;;;;;4966571;28;20039;-75
2022/09/09 10:46:38;;;;;;;3.40;1.00;;;21.00;73.70;;;;;;4963060;28;20035;-74
2022/09/09 10:49:38;;;;;;;3.83;0.93;;;20.90;75.50;;;;;;4973907;28;20039;-74
2022/09/09 10:52:23;;;;;;;2.33;0.80;;;21.00;74.20;;;;;;4961654;28;20062;-75
2022/09/09 10:54:57;;;;;;;1.65;0.82;;;21.60;73.30;;;;;;4956907;28;20027;-75
2022/09/09 10:57:37;;;;;;;3.42;1.13;;;22.00;72.70;;;;;;4972538;28;20102;-74
2022/09/09 11:00:16;;;;;;;2.10;0.82;;;21.80;71.70;;;;;;4958263;28;20034;-75
2022/09/09 11:02:42;;;;;;;3.42;1.00;;;21.50;72.30;;;;;;4954992;28;20074;-74
2022/09/09 11:05:46;;;;;;;5.32;1.20;;;21.00;72.90;;;;;;4974066;28;20415;-74
2022/09/09 11:08:17;;;;;;;3.45;1.10;;;21.00;74.00;;;;;;4972531;28;20073;-75
2022/09/09 11:10:48;;;;;;;5.72;1.00;;;20.90;73.50;;;;;;4970972;28;20142;-74
2022/09/09 11:13:54;;;;;;;1.10;0.60;;;20.80;73.30;;;;;;4965555;28;20367;-75
2022/09/09 11:16:48;;;;;;;4.38;1.10;;;21.00;75.80;;;;;;4972473;28;20031;-75
2022/09/09 11:19:34;;;;;;;3.47;0.80;;;21.40;74.30;;;;;;4945533;28;20538;-74
2022/09/09 11:22:03;;;;;;;3.25;0.75;;;22.50;74.30;;;;;;4975504;28;20037;-75
2022/09/09 11:24:33;;;;;;;4.13;1.02;;;22.40;68.90;;;;;;4970829;28;20045;-74
2022/09/09 11:27:06;;;;;;;4.80;0.85;;;22.10;71.70;;;;;;4971323;28;20043;-74
2022/09/09 11:29:52;;;;;;;6.15;1.00;;;22.20;70.80;;;;;;4967553;28;20042;-75
2022/09/09 11:32:55;;;;;;;4.97;0.95;;;22.60;68.20;;;;;;4967765;28;20053;-74
2022/09/09 11:35:32;;;;;;;3.75;0.75;;;22.40;68.60;;;;;;4972892;28;20025;-74
2022/09/09 11:38:17;;;;;;;7.40;1.00;;;22.30;69.90;;;;;;4962588;28;20070;-74
2022/09/09 11:40:44;;;;;;;5.70;1.15;;;22.00;69.30;;;;;;4970241;28;20109;-74
2022/09/09 11:43:17;;;;;;;3.10;0.75;;;22.00;71.00;;;;;;4974083;28;20367;-74
2022/09/09 11:45:50;;;;;;;2.10;0.80;;;21.40;70.70;;;;;;4973022;28;20538;-74
2022/09/09 11:48:45;;;;;;;5.15;1.20;;;21.10;71.80;;;;;;4975083;28;20018;-74
2022/09/09 11:51:20;;;;;;;3.55;1.02;;;20.90;73.10;;;;;;4973156;28;20031;-74
2022/09/09 11:53:50;;;;;;;5.78;0.93;;;20.60;76.70;;;;;;4971878;28;20030;-74
2022/09/09 11:56:26;;;;;;;4.13;0.97;;;20.00;80.90;;;;;;4972091;28;20031;-73
2022/09/09 11:59:22;;;;;;;4.25;0.98;;;19.30;82.20;;;;;;4972073;28;20037;-73
2022/09/09 12:02:10;;;;;;;3.33;1.40;;;18.90;83.00;;;;;;4950065;29;20047;-73
2022/09/09 12:05:02;;;;;;;5.65;1.50;;;18.60;85.70;;;;;;4961030;28;20030;-73
2022/09/09 12:07:50;;;;;;;3.35;1.50;;;18.50;88.10;;;;;;4971475;28;20042;-73
2022/09/09 12:10:35;;;;;;;4.68;1.60;;;18.30;88.80;;;;;;4955846;28;20039;-73
2022/09/09 12:13:22;;;;;;;4.75;1.90;;;18.10;89.40;;;;;;4964880;28;20390;-73
2022/09/09 12:15:56;;;;;;;6.72;1.90;;;18.00;90.00;;;;;;4970886;28;20038;-73
2022/09/09 12:18:33;;;;;;;8.57;2.05;;;17.90;90.10;;;;;;4974502;28;20041;-73
2022/09/09 12:21:04;;;;;;;4.60;2.13;;;17.90;91.10;;;;;;4974700;28;20058;-73
2022/09/09 12:23:46;;;;;;;6.45;2.25;;;17.70;91.40;;;;;;4972916;28;20477;-73
2022/09/09 12:26:36;;;;;;;6.30;2.67;;;17.70;92.10;;;;;;4973500;28;20121;-73
2022/09/09 12:29:05;;;;;;;5.10;2.50;;;17.60;92.70;;;;;;4973721;28;20463;-73
2022/09/09 12:31:49;;;;;;;3.13;2.58;;;17.50;92.80;;;;;;4960381;28;20459;-74
2022/09/09 12:34:19;;;;;;;4.15;2.38;;;17.40;92.80;;;;;;4973737;28;20029;-73
2022/09/09 12:36:51;;;;;;;6.30;3.10;;;17.40;93.00;;;;;;4974147;28;20434;-74
2022/09/09 12:39:41;;;;;;;9.02;3.13;;;17.30;93.30;;;;;;4973396;28;20062;-73
2022/09/09 12:42:16;;;;;;;9.50;3.22;;;17.20;93.30;;;;;;4973647;28;20039;-73
2022/09/09 12:45:01;;;;;;;8.38;3.67;;;17.10;93.60;;;;;;4970450;28;20031;-74
2022/09/09 12:47:45;;;;;;;6.63;4.25;;;17.10;93.80;;;;;;4956209;28;20031;-73
2022/09/09 12:50:27;;;;;;;6.35;3.67;;;17.10;94.10;;;;;;4966133;28;20365;-73
2022/09/09 12:52:59;;;;;;;9.73;4.30;;;17.00;94.40;;;;;;4973778;28;20027;-73
2022/09/09 12:55:30;;;;;;;8.05;4.15;;;17.00;94.80;;;;;;4973725;28;20027;-74
2022/09/09 12:57:57;;;;;;;12.25;4.50;;;17.00;94.90;;;;;;4971280;28;20053;-74
2022/09/09 13:00:24;;;;;;;6.68;4.25;;;17.10;95.10;;;;;;4969831;28;20026;-73
2022/09/09 13:02:59;;;;;;;9.60;4.22;;;17.10;95.30;;;;;;4959384;28;20039;-73
2022/09/09 13:05:27;;;;;;;10.10;5.60;;;17.10;95.30;;;;;;4973558;28;20019;-73